Time;durP1;ratioP1;P1;durP2;ratioP2;P2;SDS_P1;SDS_P2;PMS_P1;PMS_P2;Temp;Humidity;BMP_temperature;BMP_pressure;BME280_temperature;BME280_humidity;BME280_pressure;Samples;Min_cycle;Max_cycle;Signal;HPM_P1;HPM_P2
2023/10/14 00:00:55;;;;;;;4.75;2.88;;;;;;;14.57;100.00;99954.06;5019150;28;20079;-73
2023/10/14 00:03:32;;;;;;;5.70;2.42;;;;;;;14.30;100.00;99978.53;5017887;28;20029;-73
2023/10/14 00:06:00;;;;;;;2.30;1.60;;;;;;;14.03;100.00;99986.91;5013900;28;20037;-74
2023/10/14 00:08:27;;;;;;;2.53;1.38;;;;;;;13.68;100.00;99972.66;5019604;28;20442;-74
2023/10/14 00:10:54;;;;;;;2.15;1.10;;;;;;;13.48;100.00;99999.22;5017310;28;20033;-73
2023/10/14 00:13:19;;;;;;;3.42;1.27;;;;;;;13.37;100.00;100014.25;5019650;28;20037;-76
2023/10/14 00:15:45;;;;;;;1.42;0.90;;;;;;;13.38;100.00;100024.00;5015910;28;20021;-74
2023/10/14 00:18:13;;;;;;;2.45;1.10;;;;;;;13.37;100.00;100003.56;5019704;28;20040;-76
2023/10/14 00:20:38;;;;;;;1.58;1.10;;;;;;;13.33;100.00;100007.44;5018329;28;20018;-74
2023/10/14 00:23:04;;;;;;;1.95;0.90;;;;;;;13.20;100.00;99999.44;5017488;28;20395;-71
2023/10/14 00:25:32;;;;;;;2.08;1.05;;;;;;;13.24;100.00;100005.44;5016784;28;20034;-71
2023/10/14 00:27:58;;;;;;;1.60;1.00;;;;;;;13.14;100.00;100015.09;5023164;28;20064;-75
2023/10/14 00:30:26;;;;;;;2.80;1.02;;;;;;;13.01;100.00;100030.34;5004376;28;20507;-75
2023/10/14 00:32:52;;;;;;;1.92;1.00;;;;;;;13.10;100.00;100002.94;5023373;28;20568;-76
2023/10/14 00:35:19;;;;;;;1.35;0.77;;;;;;;13.02;100.00;100024.03;5022844;28;20025;-75
2023/10/14 00:37:45;;;;;;;1.80;0.90;;;;;;;13.05;100.00;100045.19;5023148;28;20029;-73
2023/10/14 00:40:12;;;;;;;2.28;0.73;;;;;;;12.98;100.00;100052.78;5022980;28;20491;-73
2023/10/14 00:42:38;;;;;;;2.10;0.80;;;;;;;12.92;100.00;100039.91;5021591;28;20125;-75
2023/10/14 00:45:09;;;;;;;1.38;0.82;;;;;;;12.78;100.00;100034.69;5004863;28;20033;-76
2023/10/14 00:47:40;;;;;;;1.52;0.95;;;;;;;12.89;100.00;100056.97;5022738;28;20390;-74
2023/10/14 00:53:08;;;;;;;1.15;0.90;;;;;;;12.82;100.00;100070.88;4960936;28;20448;-72
2023/10/14 00:55:51;;;;;;;2.60;0.90;;;;;;;12.82;100.00;100061.06;4959051;28;20070;-71
2023/10/14 00:58:23;;;;;;;2.47;0.85;;;;;;;12.82;100.00;100076.22;4961379;28;20113;-72
2023/10/14 01:00:58;;;;;;;2.47;0.90;;;;;;;12.80;100.00;100071.00;4961841;28;20035;-77
2023/10/14 01:03:31;;;;;;;2.42;1.25;;;;;;;12.94;100.00;100076.19;4962265;28;20042;-72
2023/10/14 01:05:57;;;;;;;2.90;1.13;;;;;;;12.79;100.00;100071.97;4960146;28;20037;-73
2023/10/14 01:08:25;;;;;;;2.85;1.30;;;;;;;12.87;100.00;100082.09;4960348;28;20054;-77
2023/10/14 01:10:50;;;;;;;3.72;1.80;;;;;;;12.77;100.00;100081.91;4961887;28;20396;-74
2023/10/14 01:13:22;;;;;;;4.40;2.00;;;;;;;12.78;100.00;100086.28;4960249;28;20026;-74
2023/10/14 01:16:02;;;;;;;4.53;2.30;;;;;;;12.87;100.00;100095.44;4958980;28;20023;-72
2023/10/14 01:18:27;;;;;;;4.22;2.38;;;;;;;12.93;100.00;100093.19;4958154;28;20704;-72
2023/10/14 01:20:54;;;;;;;6.93;3.00;;;;;;;12.87;100.00;100101.63;4960215;28;20037;-73
2023/10/14 01:23:21;;;;;;;5.28;3.58;;;;;;;12.82;100.00;100111.78;4960188;28;20031;-72
2023/10/14 01:25:52;;;;;;;5.55;3.90;;;;;;;12.79;100.00;100122.72;4961188;28;20121;-74
2023/10/14 01:28:21;;;;;;;8.20;4.90;;;;;;;12.84;100.00;100130.41;5017521;28;20045;-72
2023/10/14 01:31:34;;;;;;;8.05;5.40;;;;;;;12.79;100.00;100161.91;5004639;28;20052;-74
2023/10/14 01:34:05;;;;;;;5.57;3.75;;;;;;;12.60;100.00;100165.03;5020153;28;20091;-73
2023/10/14 01:36:37;;;;;;;4.50;1.83;;;;;;;12.27;100.00;100178.88;5021085;28;20104;-73
2023/10/14 01:39:09;;;;;;;4.10;1.80;;;;;;;12.10;100.00;100180.03;5021060;28;20033;-73
2023/10/14 01:41:34;;;;;;;4.15;1.50;;;;;;;11.90;100.00;100184.88;5018758;28;20272;-72
2023/10/14 01:44:05;;;;;;;4.00;1.80;;;;;;;11.88;100.00;100202.81;5021042;28;20083;-73
2023/10/14 01:46:39;;;;;;;4.63;1.77;;;;;;;11.82;100.00;100197.84;5020425;28;20324;-72
2023/10/14 01:49:15;;;;;;;5.40;1.85;;;;;;;11.79;100.00;100199.84;5022727;28;20029;-73
2023/10/14 01:51:41;;;;;;;4.88;2.00;;;;;;;11.83;100.00;100212.94;5019483;28;20548;-72
2023/10/14 01:54:09;;;;;;;5.95;1.92;;;;;;;11.79;100.00;100218.50;5023117;28;20566;-71
2023/10/14 01:56:34;;;;;;;4.57;1.80;;;;;;;11.76;100.00;100224.91;5022936;28;20028;-71
2023/10/14 01:59:00;;;;;;;7.22;1.70;;;;;;;11.69;100.00;100229.78;5022896;28;20124;-72
2023/10/14 02:01:27;;;;;;;8.57;2.20;;;;;;;11.75;100.00;100236.56;5021987;28;20081;-71
2023/10/14 02:03:54;;;;;;;6.85;2.35;;;;;;;11.72;100.00;100250.06;5016504;28;20030;-71
2023/10/14 02:06:26;;;;;;;8.60;2.10;;;;;;;11.58;100.00;100261.63;5021932;28;20044;-71
2023/10/14 02:08:52;;;;;;;10.43;2.63;;;;;;;11.55;100.00;100279.63;5019783;28;20483;-71
2023/10/14 02:11:21;;;;;;;10.90;2.63;;;;;;;11.47;100.00;100283.63;5022087;28;20032;-70
2023/10/14 02:13:50;;;;;;;10.93;2.55;;;;;;;11.47;100.00;100290.78;5021513;28;20029;-72
2023/10/14 02:16:16;;;;;;;12.18;2.88;;;;;;;11.43;100.00;100300.75;5023108;28;20053;-72
2023/10/14 02:18:42;;;;;;;8.65;2.10;;;;;;;11.43;100.00;100299.91;5022541;28;20502;-71
2023/10/14 02:21:11;;;;;;;11.48;3.00;;;;;;;11.39;100.00;100301.06;5020817;28;20029;-71
2023/10/14 02:23:45;;;;;;;8.77;2.78;;;;;;;11.36;100.00;100307.41;5021136;28;20599;-70
2023/10/14 02:26:22;;;;;;;11.70;2.80;;;;;;;11.45;100.00;100314.88;5021415;28;20034;-72
2023/10/14 02:28:49;;;;;;;10.73;2.88;;;;;;;11.43;100.00;100324.75;5022448;28;20055;-71
2023/10/14 02:31:18;;;;;;;8.00;2.78;;;;;;;11.51;100.00;100323.41;5018958;28;20160;-72
2023/10/14 02:33:47;;;;;;;8.95;2.50;;;;;;;11.44;100.00;100341.59;5021011;28;20127;-72
2023/10/14 02:36:16;;;;;;;10.95;3.13;;;;;;;11.51;100.00;100336.75;5021653;28;20107;-72
2023/10/14 02:38:46;;;;;;;11.65;3.00;;;;;;;11.46;100.00;100351.22;5019311;28;20526;-70
2023/10/14 02:41:16;;;;;;;12.82;3.10;;;;;;;11.42;100.00;100359.50;5019047;28;20502;-71
2023/10/14 02:43:43;;;;;;;10.85;2.88;;;;;;;11.39;100.00;100370.34;5017115;28;20387;-70
2023/10/14 02:46:11;;;;;;;9.50;3.38;;;;;;;11.27;100.00;100360.44;5021337;28;20196;-72
2023/10/14 02:48:54;;;;;;;16.88;3.17;;;;;;;11.25;100.00;100378.34;5019074;28;20465;-71
2023/10/14 02:51:29;;;;;;;12.00;2.90;;;;;;;11.18;100.00;100380.50;5020342;28;20057;-71
2023/10/14 02:53:56;;;;;;;12.60;2.60;;;;;;;11.19;100.00;100396.38;5019428;28;20071;-71
2023/10/14 02:56:33;;;;;;;12.88;3.05;;;;;;;11.15;100.00;100409.97;5019422;28;20041;-71
2023/10/14 02:58:58;;;;;;;13.68;2.72;;;;;;;11.03;100.00;100413.38;5013182;28;20296;-72
2023/10/14 03:01:31;;;;;;;9.10;2.70;;;;;;;10.93;100.00;100407.75;5020193;28;20255;-72
2023/10/14 03:03:57;;;;;;;11.15;2.63;;;;;;;10.93;100.00;100426.38;5020001;28;20054;-72
2023/10/14 03:06:22;;;;;;;10.65;3.10;;;;;;;10.82;100.00;100431.47;5016676;28;20064;-71
2023/10/14 03:08:57;;;;;;;13.55;3.00;;;;;;;10.77;100.00;100441.53;5017489;28;20488;-71
2023/10/14 03:11:25;;;;;;;10.63;3.08;;;;;;;10.76;100.00;100445.16;5001114;28;20044;-71
2023/10/14 03:13:52;;;;;;;11.93;3.05;;;;;;;10.67;100.00;100452.72;5018333;28;20033;-71
2023/10/14 03:16:18;;;;;;;13.32;3.40;;;;;;;10.55;100.00;100450.75;5021611;28;20487;-71
2023/10/14 03:18:44;;;;;;;10.25;2.95;;;;;;;10.50;100.00;100465.28;5018197;28;20312;-71
2023/10/14 03:21:21;;;;;;;11.35;3.10;;;;;;;10.38;100.00;100466.81;5019797;28;20064;-72
2023/10/14 03:23:46;;;;;;;10.45;3.15;;;;;;;10.40;100.00;100481.72;5022197;28;20029;-72
2023/10/14 03:26:12;;;;;;;12.38;3.40;;;;;;;10.38;100.00;100486.28;5019360;28;20099;-72
2023/10/14 03:28:38;;;;;;;8.55;3.67;;;;;;;10.34;100.00;100487.41;5004220;28;20033;-72
2023/10/14 03:31:08;;;;;;;11.23;3.42;;;;;;;10.38;100.00;100498.75;5021377;28;20033;-72
2023/10/14 03:33:42;;;;;;;14.88;4.25;;;;;;;10.31;100.00;100498.22;5001919;28;20025;-72
2023/10/14 03:36:08;;;;;;;;;;;;;;;10.31;100.00;100516.84;5021376;28;20636;-72
2023/10/14 03:41:16;;;;;;;15.45;3.95;;;;;;;10.20;100.00;100525.38;5017477;28;20033;-72
2023/10/14 03:44:09;;;;;;;11.75;3.55;;;;;;;10.05;100.00;100531.53;5016454;28;20321;-72
2023/10/14 03:46:35;;;;;;;14.10;3.35;;;;;;;9.97;100.00;100545.22;5015268;28;20133;-71
2023/10/14 03:49:38;;;;;;;14.73;3.50;;;;;;;9.87;100.00;100553.78;5017500;28;20025;-71
2023/10/14 03:51:56;;;;;;;10.73;3.22;;;;;;;9.80;100.00;100565.66;4998274;28;20731;-71
2023/10/14 03:54:31;;;;;;;11.35;3.33;;;;;;;9.71;100.00;100570.50;5017629;28;20080;-71
2023/10/14 03:57:03;;;;;;;13.50;3.42;;;;;;;9.66;100.00;100569.91;5019945;28;20029;-72
2023/10/14 03:59:33;;;;;;;10.63;3.10;;;;;;;9.56;100.00;100570.44;5019246;28;20029;-72
2023/10/14 04:02:01;;;;;;;13.40;3.10;;;;;;;9.44;100.00;100577.22;5020485;28;20112;-72
2023/10/14 04:04:29;;;;;;;10.70;2.95;;;;;;;9.38;100.00;100589.03;5022557;28;20109;-72
2023/10/14 04:09:36;;;;;;;12.90;3.50;;;;;;;9.32;100.00;100593.78;5022723;28;20072;-71
2023/10/14 04:12:07;;;;;;;14.43;3.35;;;;;;;9.30;100.00;100595.66;5022136;28;20060;-71
2023/10/14 04:14:36;;;;;;;10.80;3.42;;;;;;;9.25;100.00;100598.53;5022827;28;20112;-71
2023/10/14 04:20:13;;;;;;;10.95;3.13;;;;;;;9.32;100.00;100618.56;5019528;28;20498;-72
2023/10/14 04:22:38;;;;;;;12.65;3.25;;;;;;;9.29;100.00;100621.34;5020194;28;20037;-73
2023/10/14 04:27:45;;;;;;;14.40;3.30;;;;;;;9.28;100.00;100630.28;5020948;28;20381;-71
2023/10/14 04:30:11;;;;;;;13.85;3.33;;;;;;;9.21;100.00;100642.13;5006463;28;20033;-70
2023/10/14 04:33:03;;;;;;;10.40;3.33;;;;;;;9.18;100.00;100648.44;5024451;28;20535;-72
2023/10/14 04:35:33;;;;;;;13.95;3.45;;;;;;;9.22;100.00;100657.09;5021142;28;20479;-71
2023/10/14 04:38:04;;;;;;;16.38;3.33;;;;;;;9.15;100.00;100660.97;5022552;28;20055;-71
2023/10/14 04:45:37;;;;;;;16.95;3.70;;;;;;;9.16;100.00;100666.25;5020601;28;20111;-71
2023/10/14 04:48:04;;;;;;;13.82;3.75;;;;;;;9.12;100.00;100674.44;5024284;28;20029;-71
2023/10/14 04:50:31;;;;;;;26.20;4.63;;;;;;;9.13;100.00;100684.09;5023051;28;20068;-71
2023/10/14 04:52:57;;;;;;;12.32;3.65;;;;;;;9.11;100.00;100678.88;5023096;28;20021;-71
2023/10/14 04:55:26;;;;;;;11.80;3.92;;;;;;;9.09;100.00;100682.53;5021302;28;20025;-71
2023/10/14 04:58:23;;;;;;;11.27;3.20;;;;;;;9.05;100.00;100696.88;5021662;28;20033;-71
2023/10/14 05:00:49;;;;;;;9.95;2.95;;;;;;;9.03;100.00;100698.72;5022563;28;20091;-72
2023/10/14 05:03:19;;;;;;;13.13;3.58;;;;;;;9.08;100.00;100712.69;5024011;28;20025;-71
2023/10/14 05:05:46;;;;;;;19.38;4.18;;;;;;;9.03;100.00;100704.94;5020647;28;20021;-72
2023/10/14 05:08:21;;;;;;;11.20;3.53;;;;;;;9.01;100.00;100719.19;5020719;28;20026;-71
2023/10/14 05:11:00;;;;;;;11.75;3.50;;;;;;;8.98;100.00;100722.84;5004518;28;20030;-71
2023/10/14 05:13:31;;;;;;;12.25;3.38;;;;;;;8.93;100.00;100725.72;5018793;28;20380;-70
2023/10/14 05:16:15;;;;;;;15.50;3.72;;;;;;;8.96;100.00;100730.88;5018730;28;20080;-71
2023/10/14 05:18:43;;;;;;;18.50;3.75;;;;;;;8.94;100.00;100734.53;5023376;28;20110;-71
2023/10/14 05:21:35;;;;;;;14.20;3.75;;;;;;;8.92;100.00;100739.06;5022637;28;20229;-71
2023/10/14 05:24:02;;;;;;;11.68;4.05;;;;;;;8.88;100.00;100742.78;5018875;28;20491;-72
2023/10/14 05:26:27;;;;;;;11.20;3.25;;;;;;;8.87;100.00;100747.25;5019764;28;20067;-72
2023/10/14 05:28:53;;;;;;;17.00;3.97;;;;;;;8.86;100.00;100745.53;5021961;28;20029;-71
2023/10/14 05:31:18;;;;;;;9.68;3.17;;;;;;;8.86;100.00;100757.91;5022229;28;20029;-72
2023/10/14 05:33:44;;;;;;;15.95;4.20;;;;;;;8.81;100.00;100757.25;5023186;28;20108;-71
2023/10/14 05:36:09;;;;;;;11.50;3.67;;;;;;;8.82;100.00;100766.94;5021229;28;20025;-71
2023/10/14 05:38:34;;;;;;;13.68;3.80;;;;;;;8.76;100.00;100765.44;5002551;28;20072;-72
2023/10/14 05:41:00;;;;;;;11.38;3.88;;;;;;;8.78;100.00;100768.00;5020719;28;20056;-72
2023/10/14 05:43:26;;;;;;;15.02;4.25;;;;;;;8.74;100.00;100767.31;5018538;28;20030;-71
2023/10/14 05:45:52;;;;;;;13.35;3.72;;;;;;;8.74;100.00;100769.97;5020970;28;20057;-71
2023/10/14 05:48:19;;;;;;;15.63;3.85;;;;;;;8.67;100.00;100781.75;5022433;28;20026;-71
2023/10/14 05:50:44;;;;;;;14.07;3.85;;;;;;;8.71;100.00;100788.66;5021938;28;20067;-70
2023/10/14 05:53:11;;;;;;;13.95;4.93;;;;;;;8.72;100.00;100787.72;5020762;28;20495;-72
2023/10/14 05:55:38;;;;;;;12.88;4.22;;;;;;;8.69;100.00;100787.84;5003487;28;20123;-71
2023/10/14 05:58:06;;;;;;;13.73;3.78;;;;;;;8.65;100.00;100799.53;5021531;28;20495;-71
2023/10/14 06:00:34;;;;;;;11.32;4.25;;;;;;;8.64;100.00;100811.06;5004117;28;20033;-71
2023/10/14 06:02:59;;;;;;;13.70;3.88;;;;;;;8.61;100.00;100820.03;5021525;28;20187;-71
2023/10/14 06:05:27;;;;;;;12.50;4.05;;;;;;;8.64;100.00;100817.25;5022333;28;20437;-71
2023/10/14 06:08:00;;;;;;;12.82;3.30;;;;;;;8.72;100.00;100824.88;5020765;28;20108;-71
2023/10/14 06:10:29;;;;;;;13.95;4.10;;;;;;;8.64;100.00;100832.28;5013942;28;21355;-71
2023/10/14 06:12:56;;;;;;;13.73;3.92;;;;;;;8.63;100.00;100828.78;5017105;28;20039;-71
2023/10/14 06:15:22;;;;;;;13.32;3.67;;;;;;;8.67;100.00;100833.03;5017198;28;20029;-70
2023/10/14 06:17:49;;;;;;;11.38;3.80;;;;;;;8.70;100.00;100845.31;5020275;28;20032;-71
2023/10/14 06:20:15;;;;;;;11.20;3.60;;;;;;;8.66;100.00;100849.03;5018230;28;20029;-71
2023/10/14 06:22:42;;;;;;;11.48;3.30;;;;;;;8.62;100.00;100848.28;5021522;28;20037;-71
2023/10/14 06:25:08;;;;;;;14.13;3.78;;;;;;;8.66;100.00;100854.34;5015044;28;20715;-70
2023/10/14 06:27:33;;;;;;;13.93;3.97;;;;;;;8.61;100.00;100857.19;5021907;28;20022;-72
2023/10/14 06:29:58;;;;;;;13.57;4.00;;;;;;;8.64;100.00;100861.47;5016504;28;20373;-71
2023/10/14 06:32:24;;;;;;;11.00;3.63;;;;;;;8.67;100.00;100872.84;5015440;28;20428;-70
2023/10/14 06:34:57;;;;;;;12.93;4.05;;;;;;;8.69;100.00;100872.75;5020461;28;20041;-71
2023/10/14 06:37:24;;;;;;;10.82;3.63;;;;;;;8.68;100.00;100890.47;5019505;28;20115;-69
2023/10/14 06:39:51;;;;;;;13.23;3.90;;;;;;;8.66;100.00;100902.97;5018430;28;20036;-71
2023/10/14 06:42:19;;;;;;;10.27;3.92;;;;;;;8.69;100.00;100891.34;5020351;28;20021;-71
2023/10/14 06:44:45;;;;;;;12.48;4.65;;;;;;;8.61;100.00;100890.78;5019420;28;20026;-70
2023/10/14 06:47:11;;;;;;;12.15;3.78;;;;;;;8.75;100.00;100911.47;5018024;28;20021;-72
2023/10/14 06:49:41;;;;;;;11.60;3.95;;;;;;;8.72;100.00;100912.44;5017383;28;20507;-70
2023/10/14 06:52:08;;;;;;;9.77;3.72;;;;;;;8.77;100.00;100921.06;5018202;28;20021;-70
2023/10/14 06:54:36;;;;;;;11.65;4.00;;;;;;;8.86;100.00;100933.97;5015714;28;20057;-70
2023/10/14 06:57:07;;;;;;;18.77;4.57;;;;;;;8.91;100.00;100931.97;5019809;28;20052;-71
2023/10/14 06:59:33;;;;;;;11.40;3.85;;;;;;;8.96;100.00;100932.63;5002053;28;20072;-72
2023/10/14 07:01:59;;;;;;;15.07;4.50;;;;;;;8.98;100.00;100935.22;5000740;28;20060;-70
2023/10/14 07:04:25;;;;;;;11.77;3.95;;;;;;;9.00;100.00;100943.13;5019138;28;20084;-72
2023/10/14 07:06:51;;;;;;;11.27;3.30;;;;;;;9.01;100.00;100944.84;5018454;28;20087;-71
2023/10/14 07:09:17;;;;;;;14.57;3.85;;;;;;;9.03;100.00;100949.19;5019503;28;20056;-70
2023/10/14 07:11:47;;;;;;;12.82;4.13;;;;;;;9.03;100.00;100951.84;5014825;28;20100;-70
2023/10/14 07:14:12;;;;;;;11.73;3.88;;;;;;;9.01;100.00;100959.00;5020462;28;20033;-71
2023/10/14 07:16:38;;;;;;;16.45;3.85;;;;;;;9.01;100.00;100968.75;5020096;28;20026;-71
2023/10/14 07:19:03;;;;;;;14.55;3.83;;;;;;;9.02;100.00;100973.13;5021323;28;20479;-71
2023/10/14 07:21:32;;;;;;;15.95;4.60;;;;;;;9.00;100.00;100967.88;5002875;28;20033;-70
2023/10/14 07:24:05;;;;;;;11.38;4.05;;;;;;;9.01;100.00;100972.25;5019484;28;20534;-71
2023/10/14 07:26:36;;;;;;;12.30;4.15;;;;;;;9.05;100.00;100971.19;5020203;28;20025;-71
2023/10/14 07:29:02;;;;;;;11.73;4.07;;;;;;;9.05;100.00;100973.00;5020483;28;20029;-70
2023/10/14 07:31:30;;;;;;;11.82;3.80;;;;;;;9.07;100.00;100979.97;5017234;28;20139;-70
2023/10/14 07:34:02;;;;;;;10.45;3.42;;;;;;;9.11;100.00;100992.22;5019961;28;20129;-71
2023/10/14 07:36:27;;;;;;;12.15;3.92;;;;;;;9.13;100.00;100992.13;5013004;28;20083;-71
2023/10/14 07:39:01;;;;;;;12.85;4.53;;;;;;;9.13;100.00;100997.44;5016927;28;20030;-72
2023/10/14 07:42:39;;;;;;;12.18;3.90;;;;;;;9.19;100.00;100994.50;5097319;27;20404;-72
2023/10/14 07:45:10;;;;;;;11.20;3.63;;;;;;;9.25;100.00;101010.19;5095097;28;20031;-72
2023/10/14 07:47:36;;;;;;;15.35;4.25;;;;;;;9.28;100.00;101002.09;5095561;28;20119;-71
2023/10/14 07:50:09;;;;;;;10.38;3.35;;;;;;;9.27;100.00;101013.63;5082027;28;20025;-71
2023/10/14 07:52:35;;;;;;;12.90;3.60;;;;;;;9.32;100.00;101022.28;5093215;28;20424;-71
2023/10/14 07:55:02;;;;;;;12.48;3.60;;;;;;;9.30;100.00;101010.84;5088916;28;20104;-73
2023/10/14 07:57:27;;;;;;;14.68;3.85;;;;;;;9.37;100.00;101016.78;5094959;28;20267;-73
2023/10/14 07:59:59;;;;;;;11.05;3.75;;;;;;;9.43;100.00;101028.00;5095457;28;20115;-72
2023/10/14 08:02:26;;;;;;;14.23;3.80;;;;;;;9.46;100.00;101021.69;5086343;28;20521;-72
2023/10/14 08:04:54;;;;;;;12.20;3.58;;;;;;;9.44;100.00;101026.19;5087506;28;20032;-72
2023/10/14 08:07:20;;;;;;;12.90;4.35;;;;;;;9.50;100.00;101030.41;5094942;28;20028;-72
2023/10/14 08:09:47;;;;;;;9.70;3.03;;;;;;;9.52;100.00;101042.66;5088945;28;20028;-72
2023/10/14 08:12:14;;;;;;;17.08;4.10;;;;;;;9.57;100.00;101034.50;5094150;28;20059;-70
2023/10/14 08:14:40;;;;;;;14.60;3.40;;;;;;;9.61;100.00;101044.06;5092341;28;20028;-72
2023/10/14 08:17:11;;;;;;;12.52;3.33;;;;;;;9.58;100.00;101037.09;5085880;28;20031;-72
2023/10/14 08:19:38;;;;;;;10.93;3.17;;;;;;;9.70;100.00;101056.97;5093921;28;20061;-72
2023/10/14 08:22:05;;;;;;;12.00;3.08;;;;;;;9.72;100.00;101047.13;5092391;28;20035;-72
2023/10/14 08:24:30;;;;;;;11.75;4.43;;;;;;;9.81;100.00;101054.69;5092180;28;20024;-71
2023/10/14 08:26:56;;;;;;;13.38;3.22;;;;;;;9.84;100.00;101061.66;5095337;28;20031;-71
2023/10/14 08:29:21;;;;;;;11.35;3.10;;;;;;;9.78;100.00;101060.16;5096844;28;20024;-72
2023/10/14 08:31:51;;;;;;;10.68;3.42;;;;;;;9.87;100.00;101070.38;5090622;28;20028;-71
2023/10/14 08:34:17;;;;;;;9.05;2.92;;;;;;;9.90;100.00;101072.88;5094834;28;20032;-72
2023/10/14 08:36:42;;;;;;;10.15;2.95;;;;;;;9.93;100.00;101080.72;5086535;28;20035;-72
2023/10/14 08:39:08;;;;;;;10.20;2.78;;;;;;;9.96;100.00;101077.94;5094010;28;20023;-71
2023/10/14 08:41:36;;;;;;;14.32;3.70;;;;;;;9.98;100.00;101078.72;5093560;28;20048;-70
2023/10/14 08:44:08;;;;;;;12.38;3.50;;;;;;;10.08;100.00;101088.97;5093089;28;20084;-72
2023/10/14 08:46:39;;;;;;;9.77;2.95;;;;;;;10.16;100.00;101097.47;5087217;28;21459;-73
2023/10/14 08:49:08;;;;;;;10.77;2.90;;;;;;;10.18;100.00;101107.09;5094882;28;20024;-75
2023/10/14 08:51:37;;;;;;;10.77;3.00;;;;;;;10.31;100.00;101111.91;5095671;28;20027;-72
2023/10/14 08:54:06;;;;;;;12.30;3.30;;;;;;;10.42;100.00;101113.13;5079477;28;20020;-74
2023/10/14 08:56:34;;;;;;;12.00;3.08;;;;;;;10.47;100.00;101108.47;5080086;28;20032;-73
2023/10/14 08:59:00;;;;;;;10.48;3.28;;;;;;;10.62;100.00;101124.66;5055899;28;20089;-74
2023/10/14 09:01:27;;;;;;;25.52;3.83;;;;;;;10.69;100.00;101115.44;5078565;28;20088;-74
2023/10/14 09:03:52;;;;;;;16.50;4.50;;;;;;;10.76;100.00;101114.22;5076403;28;20157;-72
2023/10/14 09:06:18;;;;;;;14.57;3.08;;;;;;;10.86;100.00;101120.81;5075822;28;20028;-73
2023/10/14 09:08:47;;;;;;;13.30;3.85;;;;;;;10.90;100.00;101116.22;5081542;28;20032;-72
2023/10/14 09:11:33;;;;;;;13.43;3.67;;;;;;;11.01;100.00;101137.88;5079511;28;20056;-73
2023/10/14 09:14:03;;;;;;;12.00;3.17;;;;;;;11.18;100.00;101145.06;5058007;28;20038;-72
2023/10/14 09:16:32;;;;;;;13.77;3.50;;;;;;;11.28;100.00;101140.13;5078029;28;20028;-73
2023/10/14 09:18:59;;;;;;;10.57;3.22;;;;;;;11.42;100.00;101133.19;5078025;28;20028;-71
2023/10/14 09:21:25;;;;;;;9.35;3.42;;;;;;;12.00;98.50;101125.84;5079288;28;20086;-72
2023/10/14 09:23:51;;;;;;;9.27;3.03;;;;;;;12.84;95.28;101138.22;5080571;28;20381;-73
2023/10/14 09:26:18;;;;;;;10.23;2.58;;;;;;;13.77;88.61;101132.00;5080641;28;20039;-73
2023/10/14 09:28:45;;;;;;;11.15;3.05;;;;;;;14.98;81.66;101142.41;5078458;28;20474;-74
2023/10/14 09:31:11;;;;;;;10.18;2.40;;;;;;;15.74;76.08;101134.66;5077120;28;20074;-73
2023/10/14 09:33:43;;;;;;;12.82;3.10;;;;;;;16.48;71.94;101137.63;5082110;28;20028;-73
2023/10/14 09:36:18;;;;;;;9.00;2.38;;;;;;;17.04;67.03;101149.69;5081926;28;20120;-73
2023/10/14 09:38:48;;;;;;;9.35;2.35;;;;;;;17.29;65.25;101151.44;5067277;28;20115;-73
2023/10/14 09:41:15;;;;;;;8.93;2.55;;;;;;;16.79;67.07;101142.53;5079689;28;20390;-73
2023/10/14 09:43:46;;;;;;;7.78;2.45;;;;;;;17.01;65.35;101154.44;5080405;28;20027;-74
2023/10/14 09:46:12;;;;;;;7.45;2.40;;;;;;;17.91;61.96;101145.84;5083862;28;20367;-72
2023/10/14 09:48:39;;;;;;;7.50;2.60;;;;;;;18.14;59.86;101156.69;5056182;28;23799;-73
2023/10/14 09:51:06;;;;;;;8.95;2.80;;;;;;;17.78;59.66;101163.09;5077760;28;20089;-73
2023/10/14 09:53:34;;;;;;;7.20;2.40;;;;;;;18.27;57.78;101157.47;5065176;28;20028;-73
2023/10/14 09:56:08;;;;;;;8.52;2.53;;;;;;;18.92;55.52;101167.56;5093222;28;20043;-72
2023/10/14 09:58:36;;;;;;;6.95;2.20;;;;;;;19.46;52.58;101163.16;5078795;28;20057;-74
2023/10/14 10:01:04;;;;;;;6.20;1.80;;;;;;;20.46;53.33;101160.94;5080056;28;20169;-72
2023/10/14 10:03:34;;;;;;;7.00;2.30;;;;;;;20.91;50.99;101163.31;5081285;28;20066;-73
2023/10/14 10:06:13;;;;;;;7.45;2.22;;;;;;;21.83;50.79;101163.91;5075474;28;20042;-73
2023/10/14 10:09:17;;;;;;;7.13;2.20;;;;;;;22.65;50.10;101161.63;5077025;28;20629;-73
2023/10/14 10:11:46;;;;;;;8.50;3.05;;;;;;;22.98;44.08;101169.22;5077326;28;20024;-75
2023/10/14 10:14:12;;;;;;;6.63;2.13;;;;;;;21.33;42.61;101177.56;5081547;28;20055;-73
2023/10/14 10:16:40;;;;;;;6.43;1.88;;;;;;;20.71;42.26;101175.91;5075600;28;20367;-75
2023/10/14 10:19:08;;;;;;;6.93;2.00;;;;;;;20.47;43.62;101178.03;5063377;28;20514;-74
2023/10/14 10:21:40;;;;;;;5.35;1.90;;;;;;;21.51;42.29;101185.00;5080468;28;20042;-74
2023/10/14 10:24:38;;;;;;;6.43;2.30;;;;;;;22.67;43.05;101179.47;5082774;28;20028;-72
2023/10/14 10:27:03;;;;;;;6.35;2.30;;;;;;;22.78;40.34;101190.16;5076821;28;20537;-74
2023/10/14 10:29:32;;;;;;;6.20;1.92;;;;;;;22.37;39.01;101189.56;5076406;28;20142;-74
2023/10/14 10:32:11;;;;;;;7.15;1.90;;;;;;;22.22;40.21;101207.28;5076005;28;20112;-74
2023/10/14 10:35:10;;;;;;;7.30;1.80;;;;;;;21.94;42.30;101208.13;5081195;28;20027;-74
2023/10/14 10:37:56;;;;;;;5.30;1.88;;;;;;;20.74;43.78;101199.13;5027592;28;20093;-73
2023/10/14 10:40:22;;;;;;;5.80;1.67;;;;;;;19.24;42.82;101209.97;5079313;28;20126;-74
2023/10/14 10:42:53;;;;;;;7.78;2.58;;;;;;;17.63;46.22;101197.34;5079173;28;20059;-73
2023/10/14 10:45:20;;;;;;;9.02;2.63;;;;;;;17.32;48.46;101209.53;5080988;28;20504;-72
2023/10/14 10:47:54;;;;;;;10.05;3.28;;;;;;;17.45;49.49;101214.88;5083687;28;20024;-71
2023/10/14 10:50:23;;;;;;;8.00;3.00;;;;;;;16.94;49.72;101213.19;5094668;28;20027;-72
2023/10/14 10:52:54;;;;;;;7.13;2.30;;;;;;;18.99;47.96;101204.84;5069100;28;20056;-72
2023/10/14 10:55:25;;;;;;;9.32;2.20;;;;;;;20.60;43.02;101205.72;5060695;28;20482;-71
2023/10/14 10:57:59;;;;;;;5.32;1.85;;;;;;;21.30;41.40;101221.13;5076994;28;20030;-75
2023/10/14 11:00:25;;;;;;;8.88;2.00;;;;;;;19.60;44.79;101218.69;5082525;28;20092;-70
2023/10/14 11:02:54;;;;;;;8.85;2.60;;;;;;;16.50;60.26;101256.59;5082851;28;20035;-73
2023/10/14 11:05:24;;;;;;;6.82;1.98;;;;;;;14.17;70.85;101248.25;5080875;28;20045;-72
2023/10/14 11:07:52;;;;;;;7.95;2.63;;;;;;;13.07;81.68;101240.25;5070439;28;20027;-72
2023/10/14 11:10:28;;;;;;;10.48;2.55;;;;;;;12.64;91.46;101237.25;5057204;28;20256;-73
2023/10/14 11:12:57;;;;;;;8.85;2.67;;;;;;;13.48;96.58;101238.00;5051700;28;20047;-72
2023/10/14 11:15:34;;;;;;;8.15;2.47;;;;;;;14.82;80.63;101225.59;5063889;28;20059;-71
2023/10/14 11:18:01;;;;;;;10.43;3.50;;;;;;;16.61;69.86;101225.31;5071055;28;20027;-73
2023/10/14 11:20:31;;;;;;;8.20;3.03;;;;;;;18.25;64.53;101223.22;5077511;28;20285;-72
2023/10/14 11:22:58;;;;;;;6.30;2.53;;;;;;;19.39;58.68;101227.56;5070070;28;20036;-73
2023/10/14 11:25:24;;;;;;;6.68;2.05;;;;;;;20.04;53.44;101223.13;5072828;28;20106;-72
2023/10/14 11:27:49;;;;;;;10.00;2.42;;;;;;;21.06;50.62;101212.50;5073380;28;20060;-72
2023/10/14 11:30:16;;;;;;;8.23;2.20;;;;;;;21.94;47.64;101230.66;5080076;28;20079;-73
2023/10/14 11:32:52;;;;;;;7.03;2.03;;;;;;;22.19;47.15;101228.38;5081255;28;20020;-72
2023/10/14 11:35:19;;;;;;;6.60;2.30;;;;;;;20.07;46.68;101230.97;5078009;28;20031;-73
2023/10/14 11:38:02;;;;;;;6.82;2.35;;;;;;;18.06;53.42;101237.25;5054665;28;20030;-72
2023/10/14 11:40:33;;;;;;;7.05;1.92;;;;;;;16.40;57.85;101233.03;5078383;28;20346;-73
2023/10/14 11:42:59;;;;;;;6.88;1.98;;;;;;;15.33;59.14;101236.63;5077883;28;20040;-77
2023/10/14 11:45:24;;;;;;;6.40;2.15;;;;;;;14.68;57.80;101234.50;5077036;28;20024;-78
2023/10/14 11:47:53;;;;;;;6.93;2.00;;;;;;;14.12;59.68;101265.50;5080079;28;20036;-80